Time;durP1;ratioP1;P1;durP2;ratioP2;P2;SDS_P1;SDS_P2;PMS_P1;PMS_P2;Temp;Humidity;BMP_temperature;BMP_pressure;BME280_temperature;BME280_humidity;BME280_pressure;Samples;Min_cycle;Max_cycle;Signal;HPM_P1;HPM_P2
2023/05/04 00:00:06;;;;;;;10.27;6.25;;;8.50;99.90;;;;;;5036535;28;20056;-75
2023/05/04 00:02:31;;;;;;;13.90;6.88;;;8.50;99.90;;;;;;5023032;28;20055;-74
2023/05/04 00:04:57;;;;;;;11.18;7.45;;;8.40;99.90;;;;;;5021885;28;20049;-74
2023/05/04 00:07:22;;;;;;;10.88;6.90;;;8.40;99.90;;;;;;5022567;28;20147;-73
2023/05/04 00:09:49;;;;;;;11.07;6.97;;;8.40;99.90;;;;;;5024193;28;20099;-74
2023/05/04 00:12:15;;;;;;;12.13;7.10;;;8.40;99.90;;;;;;5023988;28;20039;-75
2023/05/04 00:14:41;;;;;;;11.82;7.53;;;8.40;99.90;;;;;;5036134;28;20049;-74
2023/05/04 00:17:07;;;;;;;13.90;7.35;;;8.40;99.90;;;;;;5028097;28;20436;-74
2023/05/04 00:19:34;;;;;;;10.23;7.45;;;8.30;99.90;;;;;;5020740;28;20050;-75
2023/05/04 00:22:00;;;;;;;11.40;7.57;;;8.30;99.90;;;;;;5023101;28;20099;-74
2023/05/04 00:24:26;;;;;;;12.18;7.80;;;8.30;99.90;;;;;;5026953;28;20052;-72
2023/05/04 00:26:52;;;;;;;10.68;7.38;;;8.30;99.90;;;;;;5026703;28;20033;-74
2023/05/04 00:29:18;;;;;;;12.20;8.00;;;8.30;99.90;;;;;;5027254;28;20049;-73
2023/05/04 00:31:43;;;;;;;14.27;7.95;;;8.20;99.90;;;;;;5026282;28;20077;-75
2023/05/04 00:34:09;;;;;;;12.93;8.30;;;8.20;99.90;;;;;;5023849;28;20060;-74
2023/05/04 00:36:35;;;;;;;12.30;7.90;;;8.20;99.90;;;;;;5017643;28;20045;-75
2023/05/04 00:39:00;;;;;;;10.85;7.38;;;8.20;99.90;;;;;;5024738;28;20034;-73
2023/05/04 00:41:26;;;;;;;10.70;7.43;;;8.10;99.90;;;;;;5019963;28;20095;-74
2023/05/04 00:43:52;;;;;;;11.77;8.10;;;8.20;99.90;;;;;;5022690;28;20555;-74
2023/05/04 00:46:18;;;;;;;13.07;7.90;;;8.10;99.90;;;;;;5020919;28;20030;-74
2023/05/04 00:48:48;;;;;;;13.07;7.90;;;8.00;99.90;;;;;;5025121;28;20488;-74
2023/05/04 00:51:19;;;;;;;12.90;8.23;;;8.00;99.90;;;;;;5019041;28;20550;-73
2023/05/04 00:53:46;;;;;;;12.73;7.65;;;8.10;99.90;;;;;;5025858;28;20107;-74
2023/05/04 00:56:14;;;;;;;12.40;8.82;;;8.00;99.90;;;;;;5025279;28;20045;-74
2023/05/04 00:58:40;;;;;;;10.98;7.22;;;8.00;99.90;;;;;;5025753;28;20081;-74
2023/05/04 01:01:06;;;;;;;14.45;8.30;;;8.00;99.90;;;;;;5019927;28;20595;-74
2023/05/04 01:03:32;;;;;;;14.50;7.80;;;7.90;99.90;;;;;;5021279;28;20075;-74
2023/05/04 01:06:25;;;;;;;10.68;7.38;;;7.90;99.90;;;;;;5020104;28;20037;-74
2023/05/04 01:09:05;;;;;;;12.80;8.07;;;7.90;99.90;;;;;;5021319;28;20043;-73
2023/05/04 01:11:48;;;;;;;14.43;7.53;;;7.90;99.90;;;;;;5023051;28;20770;-74
2023/05/04 01:14:15;;;;;;;12.60;7.38;;;7.80;99.90;;;;;;5025376;28;21015;-74
2023/05/04 01:16:40;;;;;;;13.40;8.32;;;7.80;99.90;;;;;;5020266;28;20034;-74
2023/05/04 01:19:06;;;;;;;11.48;8.15;;;7.70;99.90;;;;;;5022508;28;20150;-74
2023/05/04 01:21:32;;;;;;;15.57;8.30;;;7.70;99.90;;;;;;5020327;28;20053;-74
2023/05/04 01:23:58;;;;;;;12.25;7.60;;;7.70;99.90;;;;;;5025221;28;20502;-74
2023/05/04 01:26:28;;;;;;;10.15;8.07;;;7.70;99.90;;;;;;5021639;28;20045;-74
2023/05/04 01:29:26;;;;;;;13.90;7.88;;;7.70;99.90;;;;;;5025995;28;20137;-74
2023/05/04 01:31:52;;;;;;;11.15;8.15;;;7.70;99.90;;;;;;5035507;28;20048;-74
2023/05/04 01:34:20;;;;;;;15.82;7.50;;;7.70;99.90;;;;;;5020479;28;20179;-75
2023/05/04 01:36:46;;;;;;;;;;;7.60;99.90;;;;;;5024546;28;20506;-74
2023/05/04 01:39:12;;;;;;;12.43;7.65;;;7.60;99.90;;;;;;5024752;28;20634;-74
2023/05/04 01:41:37;;;;;;;12.07;8.18;;;7.50;99.90;;;;;;5026490;28;20053;-75
2023/05/04 01:44:03;;;;;;;16.65;8.80;;;7.50;99.90;;;;;;5021366;28;20060;-74
2023/05/04 01:46:29;;;;;;;13.35;8.13;;;7.60;99.90;;;;;;5021180;28;20044;-74
2023/05/04 01:48:55;;;;;;;12.57;8.07;;;7.60;99.90;;;;;;5023195;28;20050;-74
2023/05/04 01:51:24;;;;;;;16.45;8.13;;;7.60;99.90;;;;;;5013912;28;20061;-73
2023/05/04 01:53:49;;;;;;;16.52;8.70;;;7.60;99.90;;;;;;5022759;28;20042;-73
2023/05/04 01:56:15;;;;;;;11.82;8.63;;;7.60;99.90;;;;;;5024570;28;20048;-74
2023/05/04 01:58:41;;;;;;;14.18;8.80;;;7.60;99.90;;;;;;5023493;28;20735;-73
2023/05/04 02:01:07;;;;;;;13.70;8.50;;;7.60;99.90;;;;;;5017825;28;20050;-74
2023/05/04 02:03:32;;;;;;;14.52;8.55;;;7.50;99.90;;;;;;5019565;28;20046;-73
2023/05/04 02:05:58;;;;;;;14.82;8.55;;;7.50;99.90;;;;;;5019019;28;22428;-74
2023/05/04 02:08:24;;;;;;;15.73;9.10;;;7.40;99.90;;;;;;5022825;28;20491;-73
2023/05/04 02:10:49;;;;;;;13.65;8.98;;;7.40;99.90;;;;;;5023261;28;20353;-74
2023/05/04 02:13:15;;;;;;;14.43;9.70;;;7.40;99.90;;;;;;5022664;28;21443;-75
2023/05/04 02:15:43;;;;;;;13.25;9.45;;;7.40;99.90;;;;;;5024573;28;20054;-74
2023/05/04 02:18:09;;;;;;;11.57;9.30;;;7.40;99.90;;;;;;5024757;28;20051;-74
2023/05/04 02:20:34;;;;;;;13.10;9.23;;;7.40;99.90;;;;;;5023484;28;20140;-74
2023/05/04 02:23:00;;;;;;;15.95;9.90;;;7.40;99.90;;;;;;5023350;28;20045;-74
2023/05/04 02:25:28;;;;;;;13.63;9.73;;;7.30;99.90;;;;;;5025971;28;20099;-74
2023/05/04 02:27:54;;;;;;;15.57;10.23;;;7.30;99.90;;;;;;5016093;28;20133;-74
2023/05/04 02:30:20;;;;;;;16.30;9.65;;;7.30;99.90;;;;;;5021905;28;20132;-73
2023/05/04 02:32:45;;;;;;;16.05;9.77;;;7.30;99.90;;;;;;5020922;28;20073;-75
2023/05/04 02:35:11;;;;;;;17.55;10.32;;;7.30;99.90;;;;;;5023931;28;20416;-74
2023/05/04 02:37:37;;;;;;;14.18;10.25;;;7.30;99.90;;;;;;5023849;28;20080;-74
2023/05/04 02:40:03;;;;;;;17.65;10.20;;;7.30;99.90;;;;;;5017954;28;20552;-74
2023/05/04 02:42:29;;;;;;;16.35;10.43;;;7.30;99.90;;;;;;5020985;28;20041;-74
2023/05/04 02:44:54;;;;;;;17.02;9.95;;;7.30;99.90;;;;;;5025825;28;20095;-73
2023/05/04 02:47:20;;;;;;;12.38;9.90;;;7.30;99.90;;;;;;5021059;28;20053;-74
2023/05/04 02:49:46;;;;;;;15.63;10.18;;;7.30;99.90;;;;;;5021700;28;20052;-74
2023/05/04 02:52:12;;;;;;;18.20;10.50;;;7.30;99.90;;;;;;5022629;28;20060;-74
2023/05/04 02:54:37;;;;;;;16.00;10.52;;;7.30;99.90;;;;;;5024245;28;20073;-74
2023/05/04 02:57:03;;;;;;;16.55;10.77;;;7.20;99.90;;;;;;5018350;28;20081;-74
2023/05/04 02:59:29;;;;;;;17.17;10.55;;;7.20;99.90;;;;;;5020305;28;20041;-74
2023/05/04 03:01:55;;;;;;;15.82;10.73;;;7.20;99.90;;;;;;5022345;28;20087;-75
2023/05/04 03:04:20;;;;;;;17.80;11.00;;;7.20;99.90;;;;;;5018098;28;20033;-75
2023/05/04 03:06:46;;;;;;;16.90;10.75;;;7.20;99.90;;;;;;5013176;28;20045;-74
2023/05/04 03:09:12;;;;;;;16.88;10.75;;;7.30;99.90;;;;;;5016356;28;20037;-75
2023/05/04 03:11:38;;;;;;;14.75;10.60;;;7.20;99.90;;;;;;5024565;28;20081;-74
2023/05/04 03:14:03;;;;;;;19.58;11.27;;;7.10;99.90;;;;;;5014695;28;20076;-74
2023/05/04 03:16:29;;;;;;;16.95;10.43;;;7.20;99.90;;;;;;5025289;28;20882;-75
2023/05/04 03:18:54;;;;;;;15.82;10.60;;;7.10;99.90;;;;;;5022653;28;20038;-73
2023/05/04 03:21:21;;;;;;;16.92;11.20;;;7.10;99.90;;;;;;5023610;28;20045;-74
2023/05/04 03:23:46;;;;;;;17.65;11.27;;;7.10;99.90;;;;;;5024968;28;20057;-74
2023/05/04 03:26:12;;;;;;;17.52;10.38;;;7.10;99.90;;;;;;5024041;28;20037;-75
2023/05/04 03:28:37;;;;;;;15.38;10.75;;;7.10;99.90;;;;;;5022069;28;20042;-74
2023/05/04 03:31:03;;;;;;;14.98;11.20;;;7.10;99.90;;;;;;5025811;28;20645;-75
2023/05/04 03:33:29;;;;;;;17.80;10.85;;;7.10;99.90;;;;;;5015426;28;20046;-74
2023/05/04 03:35:54;;;;;;;17.00;10.43;;;7.10;99.90;;;;;;5023778;28;20037;-74
2023/05/04 03:38:20;;;;;;;13.15;10.25;;;7.10;99.90;;;;;;5020695;28;20037;-74
2023/05/04 03:40:45;;;;;;;20.88;10.82;;;7.10;99.90;;;;;;5023167;28;20053;-74
2023/05/04 03:43:11;;;;;;;16.92;10.98;;;7.00;99.90;;;;;;5022739;28;20073;-75
2023/05/04 03:45:37;;;;;;;18.35;11.05;;;7.10;99.90;;;;;;5022671;28;20080;-74
2023/05/04 03:48:04;;;;;;;19.35;11.15;;;7.10;99.90;;;;;;5024297;28;20053;-74
2023/05/04 03:50:30;;;;;;;19.13;11.07;;;7.10;99.90;;;;;;5026547;28;20119;-74
2023/05/04 03:52:56;;;;;;;15.23;10.07;;;7.10;99.90;;;;;;5026429;28;20045;-73
2023/05/04 03:55:22;;;;;;;19.25;10.88;;;7.10;99.90;;;;;;5026010;28;20037;-75
2023/05/04 03:57:48;;;;;;;16.02;10.90;;;7.10;99.90;;;;;;5027237;28;20049;-74
2023/05/04 04:00:14;;;;;;;18.60;10.93;;;7.10;99.90;;;;;;5024765;28;20087;-74
2023/05/04 04:02:40;;;;;;;18.38;11.40;;;7.10;99.90;;;;;;5024342;28;20041;-74
2023/05/04 04:05:08;;;;;;;18.15;10.27;;;7.10;99.90;;;;;;5029215;28;20168;-74
2023/05/04 04:07:34;;;;;;;16.83;11.15;;;7.10;99.90;;;;;;5021679;28;20033;-75
2023/05/04 04:10:00;;;;;;;16.92;10.85;;;7.00;99.90;;;;;;5027007;28;20052;-74
2023/05/04 04:12:25;;;;;;;16.02;10.80;;;7.10;99.90;;;;;;5021527;28;20080;-73
2023/05/04 04:14:51;;;;;;;17.52;11.25;;;7.00;99.90;;;;;;5027763;28;20444;-73
2023/05/04 04:17:17;;;;;;;18.55;11.45;;;7.00;99.90;;;;;;5025584;28;20049;-73
2023/05/04 04:19:43;;;;;;;15.45;10.20;;;7.10;99.90;;;;;;5029264;28;20045;-74
2023/05/04 04:22:09;;;;;;;15.50;11.20;;;7.10;99.90;;;;;;5027603;28;20064;-74
2023/05/04 04:24:34;;;;;;;17.50;11.60;;;7.10;99.90;;;;;;5027582;28;20071;-74
2023/05/04 04:27:00;;;;;;;16.92;10.95;;;7.10;99.90;;;;;;5023754;28;20443;-74
2023/05/04 04:29:26;;;;;;;20.63;11.18;;;7.00;99.90;;;;;;5024335;28;20552;-74
2023/05/04 04:31:51;;;;;;;17.65;11.45;;;7.10;99.90;;;;;;5023359;28;20053;-74
2023/05/04 04:34:17;;;;;;;16.42;11.05;;;7.10;99.90;;;;;;5026858;28;20048;-74
2023/05/04 04:36:43;;;;;;;18.63;12.00;;;7.10;99.90;;;;;;5024629;28;20037;-74
2023/05/04 04:39:10;;;;;;;20.05;11.35;;;7.10;99.90;;;;;;5026713;28;20503;-74
2023/05/04 04:41:35;;;;;;;15.38;10.93;;;7.10;99.90;;;;;;5024061;28;20045;-73
2023/05/04 04:44:01;;;;;;;15.55;11.25;;;7.10;99.90;;;;;;5018931;28;20087;-74
2023/05/04 04:46:27;;;;;;;18.25;11.85;;;7.10;99.90;;;;;;5019050;28;20044;-74
2023/05/04 04:48:54;;;;;;;20.40;11.82;;;7.10;99.90;;;;;;5023670;28;20171;-74
2023/05/04 04:51:20;;;;;;;15.73;10.88;;;7.10;99.90;;;;;;5023391;28;20451;-74
2023/05/04 04:53:45;;;;;;;15.30;11.13;;;7.10;99.90;;;;;;5022783;28;20048;-75
2023/05/04 04:56:17;;;;;;;16.58;11.57;;;7.20;99.90;;;;;;5024592;28;20038;-74
2023/05/04 04:58:43;;;;;;;17.67;11.73;;;7.20;99.90;;;;;;5023872;28;20371;-74
2023/05/04 05:01:09;;;;;;;18.15;12.05;;;7.20;99.90;;;;;;5021693;28;20507;-74
2023/05/04 05:03:35;;;;;;;16.27;12.50;;;7.30;99.90;;;;;;5024117;28;20132;-75
2023/05/04 05:06:01;;;;;;;17.55;11.98;;;7.30;99.90;;;;;;5022603;28;20501;-73
2023/05/04 05:08:31;;;;;;;20.60;12.00;;;7.30;99.90;;;;;;5025342;28;20049;-74
2023/05/04 05:10:57;;;;;;;17.23;12.27;;;7.30;99.90;;;;;;5027383;28;20037;-74
2023/05/04 05:13:23;;;;;;;17.60;12.07;;;7.30;99.90;;;;;;5025397;28;20052;-73
2023/05/04 05:15:48;;;;;;;17.42;12.18;;;7.30;99.90;;;;;;5022026;28;20080;-74
2023/05/04 05:18:14;;;;;;;18.17;12.15;;;7.30;99.90;;;;;;5020849;28;20087;-73
2023/05/04 05:20:40;;;;;;;16.45;11.55;;;7.40;99.90;;;;;;5024461;28;20064;-74
2023/05/04 05:23:05;;;;;;;17.67;12.18;;;7.40;99.90;;;;;;5020695;28;20046;-75
2023/05/04 05:25:31;;;;;;;18.08;12.70;;;7.40;99.90;;;;;;5027958;28;20049;-73
2023/05/04 05:27:59;;;;;;;18.77;12.25;;;7.40;99.90;;;;;;5026822;28;20025;-74
2023/05/04 05:30:27;;;;;;;17.98;12.93;;;7.50;99.90;;;;;;5020001;28;20049;-73
2023/05/04 05:32:53;;;;;;;19.20;12.90;;;7.50;99.90;;;;;;5024277;28;20098;-72
2023/05/04 05:35:19;;;;;;;19.33;12.25;;;7.60;99.90;;;;;;5024052;28;20038;-73
2023/05/04 05:37:48;;;;;;;16.77;12.23;;;7.60;99.90;;;;;;5021811;28;20592;-72
2023/05/04 05:40:14;;;;;;;17.30;12.63;;;7.60;99.90;;;;;;5027452;28;20109;-74
2023/05/04 05:42:41;;;;;;;18.50;12.43;;;7.70;99.90;;;;;;5015938;28;20821;-73
2023/05/04 05:45:09;;;;;;;;;;;7.70;99.90;;;;;;5027387;28;20191;-74
2023/05/04 05:47:35;;;;;;;18.25;12.52;;;7.70;99.90;;;;;;5028683;28;20355;-74
2023/05/04 05:50:02;;;;;;;21.73;13.33;;;7.70;99.90;;;;;;5022293;28;20048;-74
2023/05/04 05:52:28;;;;;;;21.08;13.13;;;7.80;99.90;;;;;;5029577;28;20041;-73
2023/05/04 05:54:54;;;;;;;16.92;12.50;;;7.80;99.90;;;;;;5040930;28;20041;-71
2023/05/04 05:57:19;;;;;;;17.35;13.38;;;7.90;99.90;;;;;;5020416;28;20133;-74
2023/05/04 05:59:46;;;;;;;17.90;14.02;;;7.90;99.90;;;;;;5022026;28;20037;-74
2023/05/04 06:02:19;;;;;;;18.42;13.23;;;8.00;99.90;;;;;;5019203;28;20077;-73
2023/05/04 06:04:50;;;;;;;19.02;13.55;;;8.10;99.90;;;;;;5027940;28;20392;-74
2023/05/04 06:07:18;;;;;;;18.50;12.02;;;8.10;99.90;;;;;;5023766;28;20041;-74
2023/05/04 06:09:43;;;;;;;17.58;13.30;;;8.20;99.90;;;;;;5020885;28;20042;-74
2023/05/04 06:12:12;;;;;;;20.42;13.43;;;8.20;99.90;;;;;;5020040;28;20049;-73
2023/05/04 06:14:38;;;;;;;17.83;13.45;;;8.20;99.90;;;;;;5028335;28;20077;-73
2023/05/04 06:17:04;;;;;;;17.45;12.82;;;8.20;99.90;;;;;;5020111;28;20041;-74
2023/05/04 06:19:38;;;;;;;19.42;13.52;;;8.30;99.90;;;;;;5025277;28;20039;-76
2023/05/04 06:22:05;;;;;;;18.27;12.70;;;8.40;99.90;;;;;;5026112;28;20068;-75
2023/05/04 06:24:31;;;;;;;18.25;13.02;;;8.40;99.90;;;;;;5013296;28;20116;-75
2023/05/04 06:26:57;;;;;;;16.20;12.90;;;8.50;99.90;;;;;;5021762;28;20044;-76
2023/05/04 06:29:23;;;;;;;16.38;13.00;;;8.60;99.90;;;;;;5020074;28;20037;-75
2023/05/04 06:31:49;;;;;;;15.37;12.33;;;8.70;99.90;;;;;;5023102;28;20048;-75
2023/05/04 06:34:18;;;;;;;17.77;12.32;;;8.70;99.90;;;;;;5026667;28;20049;-75
2023/05/04 06:36:48;;;;;;;17.10;13.00;;;8.80;99.90;;;;;;5023602;28;20037;-75
2023/05/04 06:39:14;;;;;;;17.20;12.60;;;8.80;99.90;;;;;;5023347;28;20084;-76
2023/05/04 06:41:40;;;;;;;16.08;12.20;;;8.90;99.90;;;;;;5017092;28;20060;-76
2023/05/04 06:44:06;;;;;;;17.90;12.55;;;8.90;99.90;;;;;;5017451;28;20100;-76
2023/05/04 06:46:36;;;;;;;16.10;12.70;;;9.00;99.90;;;;;;5019926;28;20492;-76
2023/05/04 06:49:03;;;;;;;15.25;12.50;;;9.10;99.90;;;;;;5020620;28;20050;-75
2023/05/04 06:51:34;;;;;;;14.80;11.80;;;9.10;99.90;;;;;;5024133;28;20110;-76
2023/05/04 06:54:00;;;;;;;16.45;12.40;;;9.20;99.90;;;;;;5025086;28;20132;-75
2023/05/04 06:56:26;;;;;;;19.67;12.23;;;9.20;99.90;;;;;;5022690;28;20037;-77
2023/05/04 06:58:52;;;;;;;13.75;11.95;;;9.20;99.90;;;;;;5018715;28;20049;-78
2023/05/04 07:01:17;;;;;;;20.23;12.73;;;9.30;99.90;;;;;;5016443;28;20099;-75
2023/05/04 07:03:43;;;;;;;14.75;12.23;;;9.30;99.90;;;;;;5021565;28;20034;-75
2023/05/04 07:06:09;;;;;;;17.27;12.40;;;9.40;99.90;;;;;;5017296;28;20609;-76
2023/05/04 07:08:34;;;;;;;18.00;11.82;;;9.50;99.90;;;;;;5019201;28;20046;-75
2023/05/04 07:11:00;;;;;;;14.60;11.50;;;9.60;99.90;;;;;;5024545;28;20573;-76
2023/05/04 07:13:26;;;;;;;17.13;11.70;;;9.60;99.90;;;;;;5027280;28;20385;-73
2023/05/04 07:15:52;;;;;;;19.08;12.38;;;9.70;99.90;;;;;;5021786;28;20041;-76
2023/05/04 07:18:17;;;;;;;13.77;11.73;;;9.70;99.90;;;;;;5024794;28;20045;-76
2023/05/04 07:20:43;;;;;;;14.98;11.35;;;9.80;99.90;;;;;;5025692;28;20060;-76
2023/05/04 07:23:09;;;;;;;14.85;10.98;;;9.90;99.90;;;;;;5031424;28;20053;-76
2023/05/04 07:25:34;;;;;;;14.48;10.90;;;9.90;99.90;;;;;;5030576;28;20041;-78
2023/05/04 07:28:00;;;;;;;13.82;11.50;;;10.10;99.90;;;;;;5026323;28;20548;-79
2023/05/04 07:30:26;;;;;;;16.77;11.15;;;10.30;99.90;;;;;;5026018;28;20415;-74
2023/05/04 07:32:52;;;;;;;14.32;10.60;;;10.40;99.90;;;;;;5023435;28;20467;-73
2023/05/04 07:35:18;;;;;;;14.18;10.38;;;10.50;99.90;;;;;;5029678;28;20045;-74
2023/05/04 07:37:43;;;;;;;14.05;11.00;;;10.60;99.90;;;;;;5029884;28;20125;-72
2023/05/04 07:40:10;;;;;;;15.98;10.50;;;10.70;99.90;;;;;;5030927;28;20069;-73
2023/05/04 07:42:36;;;;;;;12.27;9.68;;;10.80;99.90;;;;;;5027660;28;20064;-75
2023/05/04 07:45:02;;;;;;;16.85;10.57;;;10.90;99.90;;;;;;5029588;28;20046;-72
2023/05/04 07:47:27;;;;;;;12.95;10.02;;;11.00;99.90;;;;;;5031480;28;20041;-72
2023/05/04 07:49:53;;;;;;;14.52;10.05;;;11.10;99.90;;;;;;5024130;28;20132;-74
2023/05/04 07:52:19;;;;;;;16.75;10.65;;;11.10;99.90;;;;;;5027306;28;20040;-73
2023/05/04 07:54:44;;;;;;;15.32;9.98;;;11.20;99.90;;;;;;5026882;28;20049;-72
2023/05/04 07:57:10;;;;;;;14.38;9.93;;;11.20;99.90;;;;;;5025983;28;20037;-71
2023/05/04 07:59:36;;;;;;;20.17;10.48;;;11.40;99.90;;;;;;5027998;28;20481;-73
2023/05/04 08:02:01;;;;;;;19.42;10.73;;;11.40;99.90;;;;;;5028274;28;20467;-73
2023/05/04 08:04:27;;;;;;;14.45;10.13;;;11.50;99.90;;;;;;5026415;28;20046;-72
2023/05/04 08:06:53;;;;;;;13.93;9.75;;;11.60;99.90;;;;;;5026689;28;20668;-71
2023/05/04 08:09:19;;;;;;;12.13;9.52;;;11.70;99.90;;;;;;5028989;28;20041;-75
2023/05/04 08:11:45;;;;;;;15.82;10.27;;;11.90;99.90;;;;;;5028781;28;20042;-74
2023/05/04 08:14:11;;;;;;;13.77;10.07;;;11.80;99.90;;;;;;5025451;28;20124;-70
2023/05/04 08:16:38;;;;;;;13.02;9.70;;;11.90;99.90;;;;;;5028507;28;20124;-72
2023/05/04 08:19:07;;;;;;;13.25;8.98;;;12.00;99.90;;;;;;5026086;28;20049;-71
2023/05/04 08:21:33;;;;;;;15.32;9.80;;;12.10;99.90;;;;;;5028634;28;20081;-73
2023/05/04 08:23:59;;;;;;;14.63;9.40;;;12.20;99.90;;;;;;5015646;28;20034;-71
2023/05/04 08:26:25;;;;;;;11.98;8.95;;;12.30;99.90;;;;;;5025637;28;20120;-71
2023/05/04 08:28:51;;;;;;;15.23;9.82;;;12.30;99.90;;;;;;5027183;28;20162;-71
2023/05/04 08:31:17;;;;;;;11.80;9.23;;;12.50;99.90;;;;;;5028917;28;20037;-72
2023/05/04 08:33:44;;;;;;;12.98;9.30;;;12.60;99.90;;;;;;5028310;28;20090;-71
2023/05/04 08:36:10;;;;;;;10.73;9.57;;;12.60;99.90;;;;;;5028991;28;20133;-71
2023/05/04 08:38:36;;;;;;;13.88;9.25;;;12.70;99.90;;;;;;5026562;28;20116;-72
2023/05/04 08:41:08;;;;;;;13.13;9.55;;;12.80;99.90;;;;;;5023304;28;20041;-71
2023/05/04 08:43:35;;;;;;;14.32;9.43;;;13.00;99.90;;;;;;5026064;28;20116;-75
2023/05/04 08:46:05;;;;;;;12.90;9.05;;;13.10;99.90;;;;;;5027299;28;20037;-69
2023/05/04 08:48:34;;;;;;;11.57;9.75;;;13.20;99.90;;;;;;5028665;28;20060;-71
2023/05/04 08:51:03;;;;;;;12.05;9.40;;;13.20;99.90;;;;;;5026951;28;20128;-71
2023/05/04 08:53:40;;;;;;;16.73;9.43;;;13.30;99.90;;;;;;5025882;28;20045;-71
2023/05/04 08:56:15;;;;;;;10.77;8.68;;;13.40;99.90;;;;;;5022008;28;20115;-71
2023/05/04 08:58:49;;;;;;;12.18;8.93;;;13.60;99.90;;;;;;5042219;28;20123;-72
2023/05/04 09:01:20;;;;;;;13.15;8.93;;;13.70;99.90;;;;;;5028535;28;20042;-73
2023/05/04 09:04:03;;;;;;;16.40;9.23;;;13.70;99.90;;;;;;5024932;28;20175;-73
2023/05/04 09:06:43;;;;;;;12.43;8.80;;;13.80;99.60;;;;;;5019821;28;20092;-73
2023/05/04 09:09:20;;;;;;;10.15;8.43;;;13.80;99.30;;;;;;5027956;28;20049;-73
2023/05/04 09:11:51;;;;;;;14.20;8.40;;;13.90;99.50;;;;;;5015713;28;20045;-73
2023/05/04 09:14:21;;;;;;;13.90;9.13;;;13.90;99.40;;;;;;5019308;28;20046;-74
2023/05/04 09:16:47;;;;;;;12.73;8.43;;;14.00;99.20;;;;;;5026664;28;20041;-72
2023/05/04 09:19:22;;;;;;;13.68;8.55;;;14.10;98.50;;;;;;5021703;28;20041;-76
2023/05/04 09:21:50;;;;;;;13.70;8.90;;;14.20;98.30;;;;;;5025457;28;20382;-72
2023/05/04 09:24:28;;;;;;;13.00;9.10;;;14.30;98.00;;;;;;5020080;28;20056;-72
2023/05/04 09:26:54;;;;;;;10.60;8.32;;;14.40;98.10;;;;;;5020054;28;20936;-73
2023/05/04 09:29:21;;;;;;;12.13;8.63;;;14.50;97.50;;;;;;5018440;28;20164;-72
2023/05/04 09:31:48;;;;;;;9.77;8.50;;;14.50;97.60;;;;;;5027079;28;20141;-71
2023/05/04 09:34:14;;;;;;;13.35;8.27;;;14.60;97.70;;;;;;5024020;28;20037;-73
2023/05/04 09:36:41;;;;;;;11.88;8.15;;;14.60;97.30;;;;;;5023049;28;20129;-75
2023/05/04 09:39:11;;;;;;;11.02;7.88;;;14.70;96.10;;;;;;5022444;28;20068;-72
2023/05/04 09:41:36;;;;;;;12.60;7.78;;;14.80;95.80;;;;;;5019525;28;20053;-71
2023/05/04 09:44:03;;;;;;;11.80;8.40;;;14.70;95.40;;;;;;5024671;28;20050;-71
2023/05/04 09:46:29;;;;;;;10.82;7.75;;;14.80;95.20;;;;;;5026206;28;20401;-71
2023/05/04 09:48:55;;;;;;;12.20;7.63;;;14.90;95.50;;;;;;5026163;28;20501;-72
2023/05/04 09:51:26;;;;;;;12.23;8.23;;;15.00;95.30;;;;;;5025256;28;20588;-76
2023/05/04 09:53:52;;;;;;;12.50;7.43;;;15.10;94.50;;;;;;5021181;28;20188;-74
2023/05/04 09:56:24;;;;;;;9.73;6.37;;;15.10;93.80;;;;;;5017148;28;20069;-75
2023/05/04 09:58:51;;;;;;;11.98;6.82;;;15.20;93.70;;;;;;5021533;28;20038;-74
2023/05/04 10:01:17;;;;;;;10.85;7.28;;;15.30;93.30;;;;;;5028388;28;20046;-72
2023/05/04 10:03:43;;;;;;;9.23;7.07;;;15.50;93.20;;;;;;5022002;28;20045;-72
2023/05/04 10:06:10;;;;;;;12.20;7.75;;;15.60;92.70;;;;;;5026264;28;20116;-73
2023/05/04 10:08:37;;;;;;;11.80;7.50;;;15.70;92.40;;;;;;5024740;28;20096;-71
2023/05/04 10:11:03;;;;;;;11.80;6.63;;;15.80;92.20;;;;;;5015437;28;20042;-71
2023/05/04 10:13:29;;;;;;;15.38;6.43;;;15.90;92.20;;;;;;5025718;28;20043;-71
2023/05/04 10:16:23;;;;;;;8.55;6.18;;;16.00;90.80;;;;;;5027289;28;20037;-70
2023/05/04 10:19:14;;;;;;;10.00;6.88;;;16.10;89.70;;;;;;5025684;28;20104;-72
2023/05/04 10:22:19;;;;;;;12.38;6.82;;;16.20;90.00;;;;;;5026736;28;20132;-71
2023/05/04 10:25:07;;;;;;;10.25;6.45;;;16.30;89.00;;;;;;5015189;28;21290;-71
2023/05/04 10:27:32;;;;;;;9.27;6.28;;;16.40;89.60;;;;;;5024034;28;20099;-70
2023/05/04 10:30:00;;;;;;;9.75;6.15;;;16.50;88.70;;;;;;5013834;28;20516;-70
2023/05/04 10:32:26;;;;;;;8.43;6.32;;;16.70;88.00;;;;;;5025406;28;20041;-70
2023/05/04 10:35:04;;;;;;;11.02;6.47;;;16.80;85.70;;;;;;5025786;28;20080;-71
2023/05/04 10:37:30;;;;;;;13.88;6.90;;;16.70;83.80;;;;;;5023217;28;20045;-70
2023/05/04 10:39:57;;;;;;;10.60;6.10;;;16.80;83.80;;;;;;5025264;28;20050;-71
2023/05/04 10:42:23;;;;;;;9.97;6.17;;;16.80;83.30;;;;;;5024958;28;20052;-73
2023/05/04 10:44:53;;;;;;;9.70;5.65;;;16.90;83.60;;;;;;5018942;28;20057;-72
2023/05/04 10:47:36;;;;;;;8.68;6.18;;;16.90;82.10;;;;;;5017002;28;20050;-71
2023/05/04 10:50:14;;;;;;;8.73;6.10;;;16.90;80.00;;;;;;5015948;28;20041;-71
2023/05/04 10:52:52;;;;;;;9.57;5.70;;;16.90;80.60;;;;;;5021219;28;20102;-71
2023/05/04 10:55:18;;;;;;;9.52;5.88;;;17.00;79.90;;;;;;5025264;28;20521;-72
2023/05/04 10:57:49;;;;;;;14.53;6.27;;;17.10;80.40;;;;;;5026814;28;20408;-73
2023/05/04 11:00:15;;;;;;;6.78;5.45;;;17.10;79.60;;;;;;5019649;28;20034;-74
2023/05/04 11:02:41;;;;;;;10.07;6.03;;;17.20;79.60;;;;;;5022951;28;20041;-74
2023/05/04 11:05:07;;;;;;;10.98;6.68;;;17.20;78.50;;;;;;5022577;28;20041;-74
2023/05/04 11:07:35;;;;;;;8.25;5.88;;;17.20;77.70;;;;;;5024155;28;20543;-75
2023/05/04 11:10:01;;;;;;;11.90;5.90;;;17.30;77.30;;;;;;5036020;28;20042;-77
2023/05/04 11:12:27;;;;;;;8.68;5.97;;;17.30;77.00;;;;;;5021729;28;20057;-75
2023/05/04 11:15:06;;;;;;;9.85;6.10;;;17.40;77.60;;;;;;5024647;28;20081;-74
2023/05/04 11:17:32;;;;;;;8.88;5.80;;;17.40;76.30;;;;;;5018208;28;20069;-74
2023/05/04 11:19:59;;;;;;;8.05;5.57;;;17.50;76.30;;;;;;5017727;28;20072;-74
2023/05/04 11:22:26;;;;;;;8.48;5.95;;;17.50;77.40;;;;;;5022012;28;20077;-71
2023/05/04 11:24:51;;;;;;;10.05;5.72;;;17.60;77.30;;;;;;5017514;28;20120;-71
2023/05/04 11:27:27;;;;;;;8.15;4.90;;;17.70;77.00;;;;;;5019184;28;20120;-71
2023/05/04 11:30:01;;;;;;;9.93;4.83;;;17.80;75.30;;;;;;5020722;28;20086;-71
2023/05/04 11:32:45;;;;;;;7.85;4.53;;;17.90;74.70;;;;;;5023048;28;20046;-71
2023/05/04 11:35:18;;;;;;;9.05;5.53;;;18.10;74.60;;;;;;5014554;28;20056;-71
2023/05/04 11:37:45;;;;;;;10.70;5.10;;;18.30;74.40;;;;;;5024790;28;20077;-72
2023/05/04 11:40:24;;;;;;;7.15;4.45;;;18.50;76.40;;;;;;5025587;28;20041;-71
2023/05/04 11:42:51;;;;;;;7.63;4.55;;;18.60;73.40;;;;;;5022621;28;20042;-72
2023/05/04 11:45:29;;;;;;;10.15;4.85;;;18.70;72.10;;;;;;5020125;28;20049;-72
2023/05/04 11:47:58;;;;;;;6.65;4.30;;;18.80;70.80;;;;;;5026473;28;20077;-72
2023/05/04 11:50:26;;;;;;;6.63;3.85;;;18.80;71.20;;;;;;5027023;28;20048;-71
2023/05/04 11:53:02;;;;;;;;;;;19.00;71.00;;;;;;5027179;28;20037;-72
2023/05/04 11:55:29;;;;;;;6.68;3.83;;;19.00;70.20;;;;;;5025599;28;19943;-71
2023/05/04 11:57:59;;;;;;;6.18;3.80;;;19.10;69.20;;;;;;5016449;28;20693;-72
2023/05/04 12:00:38;;;;;;;7.85;4.32;;;19.20;68.80;;;;;;5014408;28;20030;-72
2023/05/04 12:03:08;;;;;;;9.10;4.03;;;19.30;67.90;;;;;;5026043;28;20552;-72
2023/05/04 12:05:35;;;;;;;7.60;3.67;;;19.20;67.10;;;;;;5027244;28;20111;-72
2023/05/04 12:08:02;;;;;;;6.68;3.70;;;19.30;67.50;;;;;;5027811;28;20086;-71
2023/05/04 12:10:33;;;;;;;6.60;3.78;;;19.30;65.70;;;;;;5029124;28;20053;-72
2023/05/04 12:13:02;;;;;;;9.85;4.05;;;19.20;64.60;;;;;;5024712;28;20042;-71
2023/05/04 12:15:35;;;;;;;6.93;4.43;;;19.20;64.80;;;;;;5027513;28;20091;-71
2023/05/04 12:18:02;;;;;;;8.23;4.20;;;19.10;64.80;;;;;;5027663;28;20092;-71
2023/05/04 12:20:30;;;;;;;8.00;3.97;;;19.10;65.60;;;;;;5030106;28;20045;-71
2023/05/04 12:22:57;;;;;;;5.97;3.72;;;19.10;65.80;;;;;;5030293;28;20128;-72
2023/05/04 12:25:23;;;;;;;5.47;3.17;;;19.10;65.00;;;;;;5028308;28;20500;-72
2023/05/04 12:27:49;;;;;;;7.20;3.80;;;19.10;64.80;;;;;;5030255;28;20042;-71
2023/05/04 12:30:16;;;;;;;7.72;4.38;;;19.20;64.90;;;;;;5029118;28;20045;-72
2023/05/04 12:32:43;;;;;;;8.10;4.95;;;19.20;65.40;;;;;;5018017;28;20043;-72
2023/05/04 12:35:09;;;;;;;11.23;5.10;;;19.30;65.40;;;;;;5029398;28;20132;-74
2023/05/04 12:37:35;;;;;;;10.03;4.83;;;19.40;65.00;;;;;;5023197;28;20034;-71
2023/05/04 12:40:19;;;;;;;6.72;4.22;;;19.30;64.80;;;;;;5023757;28;20576;-71
2023/05/04 12:42:44;;;;;;;9.25;4.55;;;19.30;64.00;;;;;;5022997;28;20068;-72